createdAt,value
2018-05-24T00:00:49.521Z,5.75
2018-05-24T00:03:19.585Z,3.22
2018-05-24T00:05:49.013Z,3.25
2018-05-24T00:08:20.033Z,3.75
2018-05-24T00:10:49.549Z,3.12
2018-05-24T00:13:19.107Z,3.12
2018-05-24T00:15:48.753Z,3.10
2018-05-24T00:18:18.454Z,3.40
2018-05-24T00:20:48.421Z,3.00
2018-05-24T00:23:19.537Z,3.40
2018-05-24T00:25:50.039Z,3.40
2018-05-24T00:28:20.224Z,3.45
2018-05-24T00:30:49.737Z,3.17
2018-05-24T00:33:19.867Z,3.45
2018-05-24T00:35:49.694Z,3.40
2018-05-24T00:38:19.440Z,3.90
2018-05-24T00:40:49.375Z,3.50
2018-05-24T00:43:20.173Z,3.40
2018-05-24T00:45:49.479Z,3.70
2018-05-24T00:48:18.904Z,3.70
2018-05-24T00:50:49.379Z,3.33
2018-05-24T00:53:19.141Z,3.70
2018-05-24T00:55:48.921Z,3.90
2018-05-24T00:58:20.104Z,3.70
2018-05-24T01:00:49.575Z,3.95
2018-05-24T01:03:19.174Z,3.58
2018-05-24T01:05:48.658Z,3.70
2018-05-24T01:08:18.580Z,4.18
2018-05-24T01:10:48.195Z,4.05
2018-05-24T01:13:17.784Z,3.85
2018-05-24T01:15:47.279Z,4.15
2018-05-24T01:18:18.224Z,3.60
2018-05-24T01:20:48.517Z,3.72
2018-05-24T01:23:22.921Z,3.72
2018-05-24T01:25:53.800Z,3.72
2018-05-24T01:28:26.683Z,4.00
2018-05-24T01:30:56.347Z,3.97
2018-05-24T01:33:27.018Z,3.55
2018-05-24T01:35:56.641Z,3.45
2018-05-24T01:38:26.823Z,3.85
2018-05-24T01:40:56.459Z,3.50
2018-05-24T01:43:25.815Z,4.05
2018-05-24T01:45:55.181Z,3.95
2018-05-24T01:48:25.190Z,4.20
2018-05-24T01:50:55.450Z,3.60
2018-05-24T01:53:26.151Z,3.90
2018-05-24T01:55:55.726Z,4.00
2018-05-24T01:58:25.255Z,3.67
2018-05-24T02:00:56.236Z,3.67
2018-05-24T02:03:25.902Z,3.95
2018-05-24T02:05:55.584Z,3.97
2018-05-24T02:08:26.054Z,3.97
2018-05-24T02:10:55.575Z,3.78
2018-05-24T02:13:25.059Z,3.70
2018-05-24T02:15:54.552Z,4.03
2018-05-24T02:18:23.976Z,3.78
2018-05-24T02:20:53.419Z,3.80
2018-05-24T02:23:23.249Z,4.30
2018-05-24T02:25:54.818Z,4.07
2018-05-24T02:28:24.553Z,4.15
2018-05-24T02:30:54.161Z,3.87
2018-05-24T02:33:23.699Z,4.37
2018-05-24T02:35:53.587Z,3.72
2018-05-24T02:38:23.673Z,4.50
2018-05-24T02:40:53.342Z,4.25
2018-05-24T02:43:22.818Z,4.12
2018-05-24T02:45:52.400Z,4.32
2018-05-24T02:48:22.266Z,4.50
2018-05-24T02:50:52.664Z,7.97
2018-05-24T02:53:21.908Z,4.10
2018-05-24T02:55:51.756Z,4.72
2018-05-24T02:58:21.329Z,4.30
2018-05-24T03:00:51.703Z,4.18
2018-05-24T03:03:21.254Z,4.05
2018-05-24T03:05:52.408Z,4.47
2018-05-24T03:08:22.377Z,4.43
2018-05-24T03:10:52.023Z,4.45
2018-05-24T03:13:22.762Z,6.12
2018-05-24T03:15:52.639Z,4.50
2018-05-24T03:18:22.539Z,6.05
2018-05-24T03:20:51.983Z,5.43
2018-05-24T03:23:22.160Z,4.65
2018-05-24T03:25:51.749Z,4.15
2018-05-24T03:28:22.051Z,5.03
2018-05-24T03:30:52.004Z,4.20
2018-05-24T03:33:23.829Z,4.57
2018-05-24T03:35:54.232Z,4.30
2018-05-24T03:38:23.738Z,4.60
2018-05-24T03:40:53.015Z,4.68
2018-05-24T03:43:23.328Z,4.30
2018-05-24T03:45:53.011Z,4.62
2018-05-24T03:48:22.629Z,5.35
2018-05-24T03:50:52.445Z,4.55
2018-05-24T03:53:22.326Z,4.30
2018-05-24T03:55:51.813Z,4.57
2018-05-24T03:58:22.336Z,4.60
2018-05-24T04:01:03.201Z,4.37
2018-05-24T04:03:45.251Z,4.40
2018-05-24T04:06:14.622Z,4.22
2018-05-24T04:08:43.972Z,4.03
2018-05-24T04:11:13.640Z,4.60
2018-05-24T04:13:43.269Z,3.97
2018-05-24T04:16:12.898Z,4.12
2018-05-24T04:18:43.565Z,4.20
2018-05-24T04:21:12.982Z,4.97
2018-05-24T04:23:43.903Z,3.87
2018-05-24T04:26:13.856Z,4.50
2018-05-24T04:28:44.369Z,4.65
2018-05-24T04:31:13.712Z,4.47
2018-05-24T04:34:01.054Z,4.25
2018-05-24T04:36:31.809Z,4.80
2018-05-24T04:39:01.548Z,4.82
2018-05-24T04:41:31.195Z,4.30
2018-05-24T04:44:03.111Z,4.35
2018-05-24T04:46:33.362Z,4.57
2018-05-24T04:49:03.142Z,4.80
2018-05-24T04:51:33.277Z,3.97
2018-05-24T04:54:25.086Z,4.50
2018-05-24T04:56:54.569Z,4.20
2018-05-24T04:59:25.014Z,4.30
2018-05-24T05:01:56.189Z,4.70
2018-05-24T05:04:26.237Z,4.03
2018-05-24T05:06:56.076Z,4.30
2018-05-24T05:09:26.123Z,4.22
2018-05-24T05:11:57.819Z,4.50
2018-05-24T05:14:27.376Z,4.25
2018-05-24T05:16:56.951Z,4.10
2018-05-24T05:19:26.135Z,4.07
2018-05-24T05:21:55.997Z,4.15
2018-05-24T05:24:25.702Z,4.00
2018-05-24T05:26:57.353Z,3.75
2018-05-24T05:29:27.005Z,3.90
2018-05-24T05:31:57.088Z,3.60
2018-05-24T05:34:27.845Z,3.92
2018-05-24T05:36:57.921Z,3.47
2018-05-24T05:39:28.643Z,3.50
2018-05-24T05:41:58.225Z,3.28
2018-05-24T05:44:27.810Z,2.70
2018-05-24T05:46:58.239Z,2.90
2018-05-24T05:49:29.054Z,2.62
2018-05-24T05:51:59.543Z,3.10
2018-05-24T05:54:30.063Z,2.62
2018-05-24T05:57:00.962Z,2.65
2018-05-24T05:59:31.105Z,2.70
2018-05-24T06:02:00.758Z,2.40
2018-05-24T06:04:30.336Z,2.70
2018-05-24T06:07:00.487Z,2.17
2018-05-24T06:09:30.147Z,2.30
2018-05-24T06:11:59.689Z,2.63
2018-05-24T06:14:29.525Z,2.63
2018-05-24T06:16:59.297Z,2.33
2018-05-24T06:19:32.699Z,2.40
2018-05-24T06:22:02.751Z,2.50
2018-05-24T06:24:32.418Z,2.40
2018-05-24T06:27:01.959Z,7.30
2018-05-24T06:29:32.733Z,3.77
2018-05-24T06:32:02.300Z,2.77
2018-05-24T06:34:32.974Z,2.60
2018-05-24T06:37:02.545Z,2.53
2018-05-24T06:39:32.098Z,2.13
2018-05-24T06:42:01.932Z,2.30
2018-05-24T06:44:32.504Z,2.40
2018-05-24T06:47:01.862Z,2.50
2018-05-24T06:49:32.580Z,2.87
2018-05-24T06:52:02.642Z,2.30
2018-05-24T06:54:32.123Z,2.30
2018-05-24T06:57:02.288Z,2.37
2018-05-24T06:59:31.711Z,2.37
2018-05-24T07:02:02.734Z,2.10
2018-05-24T07:04:32.259Z,2.23
2018-05-24T07:07:01.954Z,2.33
2018-05-24T07:09:31.531Z,2.30
2018-05-24T07:12:01.735Z,2.67
2018-05-24T07:14:31.170Z,2.20
2018-05-24T07:17:01.507Z,2.10
2018-05-24T07:19:31.418Z,2.03
2018-05-24T07:22:01.334Z,2.30
2018-05-24T07:27:06.336Z,2.17
2018-05-24T07:29:35.690Z,2.00
2018-05-24T07:32:04.981Z,2.03
2018-05-24T07:34:35.325Z,2.20
2018-05-24T07:37:05.032Z,2.07
2018-05-24T07:39:34.766Z,2.07
2018-05-24T07:42:04.631Z,1.80
2018-05-24T07:44:35.196Z,2.30
2018-05-24T07:47:06.948Z,2.00
2018-05-24T07:49:36.652Z,2.20
2018-05-24T07:52:05.969Z,2.40
2018-05-24T07:54:35.340Z,2.50
2018-05-24T07:57:05.046Z,2.23
2018-05-24T07:59:34.783Z,2.03
2018-05-24T08:02:05.434Z,1.90
2018-05-24T08:04:35.189Z,2.27
2018-05-24T08:07:04.879Z,2.60
2018-05-24T08:09:34.556Z,1.80
2018-05-24T08:12:05.734Z,2.33
2018-05-24T08:14:35.347Z,2.10
2018-05-24T08:17:06.326Z,2.03
2018-05-24T08:19:36.298Z,2.13
2018-05-24T08:22:05.675Z,2.30
2018-05-24T08:24:35.459Z,2.50
2018-05-24T08:27:05.247Z,1.87
2018-05-24T08:29:36.138Z,2.20
2018-05-24T08:32:08.239Z,1.80
2018-05-24T08:34:37.867Z,2.17
2018-05-24T08:37:07.388Z,1.90
2018-05-24T08:39:38.072Z,2.00
2018-05-24T08:42:07.607Z,1.90
2018-05-24T08:44:37.177Z,1.80
2018-05-24T08:47:09.226Z,1.80
2018-05-24T08:49:39.949Z,1.80
2018-05-24T08:52:09.275Z,2.17
2018-05-24T08:54:38.831Z,2.10
2018-05-24T08:57:09.654Z,2.10
2018-05-24T08:59:43.787Z,2.20
2018-05-24T09:02:13.999Z,2.10
2018-05-24T09:04:43.506Z,2.00
2018-05-24T09:07:13.173Z,1.93
2018-05-24T09:09:43.046Z,2.00
2018-05-24T09:12:12.867Z,1.67
2018-05-24T09:14:42.559Z,2.07
2018-05-24T09:17:13.041Z,2.00
2018-05-24T09:19:44.647Z,1.70
2018-05-24T09:22:15.262Z,1.73
2018-05-24T09:24:44.853Z,1.80
2018-05-24T09:27:14.828Z,1.97
2018-05-24T09:29:45.621Z,2.00
2018-05-24T09:32:15.021Z,1.50
2018-05-24T09:34:47.094Z,1.80
2018-05-24T09:37:16.719Z,1.90
2018-05-24T09:39:46.379Z,1.90
2018-05-24T09:42:15.750Z,1.60
2018-05-24T09:44:47.875Z,1.63
2018-05-24T09:47:20.386Z,1.60
2018-05-24T09:49:50.058Z,1.60
2018-05-24T09:52:19.592Z,1.60
2018-05-24T09:54:49.123Z,1.80
2018-05-24T09:57:18.911Z,1.50
2018-05-24T09:59:49.114Z,1.77
2018-05-24T10:02:18.731Z,1.60
2018-05-24T10:04:49.976Z,1.77
2018-05-24T10:07:19.493Z,2.13
2018-05-24T10:09:49.944Z,1.87
2018-05-24T10:12:20.470Z,1.87
2018-05-24T10:14:50.349Z,1.60
2018-05-24T10:17:19.745Z,1.50
2018-05-24T10:19:50.057Z,1.87
2018-05-24T10:22:19.294Z,1.70
2018-05-24T10:24:49.138Z,1.93
2018-05-24T10:27:18.961Z,1.73
2018-05-24T10:29:49.668Z,1.73
2018-05-24T10:32:19.055Z,1.60
2018-05-24T10:34:48.500Z,1.40
2018-05-24T10:37:18.095Z,1.53
2018-05-24T10:39:47.734Z,1.70
2018-05-24T10:42:17.088Z,1.60
2018-05-24T10:44:48.696Z,1.60
2018-05-24T10:47:19.236Z,1.57
2018-05-24T10:49:50.885Z,1.50
2018-05-24T10:52:21.409Z,1.60
2018-05-24T10:54:51.106Z,1.50
2018-05-24T10:57:20.608Z,1.50
2018-05-24T10:59:49.978Z,1.50
2018-05-24T11:02:19.635Z,1.63
2018-05-24T11:04:49.567Z,1.30
2018-05-24T11:07:19.467Z,1.40
2018-05-24T11:09:50.454Z,1.40
2018-05-24T11:12:19.875Z,1.40
2018-05-24T11:14:49.776Z,1.30
2018-05-24T11:17:20.353Z,1.20
2018-05-24T11:19:52.520Z,1.33
2018-05-24T11:22:22.036Z,1.40
2018-05-24T11:24:51.461Z,1.10
2018-05-24T11:27:20.435Z,1.37
2018-05-24T11:29:50.829Z,1.27
2018-05-24T11:32:22.927Z,1.47
2018-05-24T11:34:52.547Z,1.30
2018-05-24T11:37:22.151Z,1.17
2018-05-24T11:39:51.876Z,1.10
2018-05-24T11:42:22.811Z,0.90
2018-05-24T11:44:52.260Z,1.13
2018-05-24T11:47:21.677Z,1.17
2018-05-24T11:49:51.896Z,1.20
2018-05-24T11:52:21.288Z,1.13
2018-05-24T11:54:50.882Z,1.20
2018-05-24T11:57:20.544Z,1.30
2018-05-24T11:59:50.122Z,1.00
2018-05-24T12:02:19.882Z,0.93
2018-05-24T12:04:49.235Z,1.10
2018-05-24T12:07:18.583Z,1.30
2018-05-24T12:09:48.311Z,1.10
2018-05-24T12:12:17.854Z,1.10
2018-05-24T12:14:47.460Z,1.67
2018-05-24T12:17:19.630Z,1.30
2018-05-24T12:19:49.245Z,1.07
2018-05-24T12:22:18.867Z,1.10
2018-05-24T12:27:27.727Z,1.20
2018-05-24T12:30:13.690Z,1.20
2018-05-24T12:32:44.384Z,1.20
2018-05-24T12:35:14.161Z,1.20
2018-05-24T12:37:43.960Z,1.60
2018-05-24T12:44:19.256Z,1.27
2018-05-24T12:46:49.745Z,1.20
2018-05-24T12:49:20.141Z,1.00
2018-05-24T12:52:04.796Z,1.50
2018-05-24T12:54:34.750Z,1.53
2018-05-24T12:57:04.388Z,1.20
2018-05-24T12:59:36.911Z,1.30
2018-05-24T13:02:08.597Z,1.30
2018-05-24T13:04:38.655Z,1.30
2018-05-24T13:07:08.333Z,1.60
2018-05-24T13:09:38.475Z,1.60
2018-05-24T13:12:08.019Z,1.60
2018-05-24T13:14:37.669Z,1.70
2018-05-24T13:17:08.021Z,1.50
2018-05-24T13:19:37.828Z,1.70
2018-05-24T13:22:07.346Z,1.70
2018-05-24T13:24:36.924Z,1.87
2018-05-24T13:27:06.389Z,1.80
2018-05-24T13:29:35.990Z,1.70
2018-05-24T13:32:05.460Z,1.60
2018-05-24T13:34:35.259Z,1.40
2018-05-24T13:37:04.423Z,1.67
2018-05-24T13:39:37.177Z,1.90
2018-05-24T13:42:06.908Z,1.83
2018-05-24T13:44:37.299Z,1.80
2018-05-24T13:47:08.556Z,1.77
2018-05-24T13:49:37.953Z,1.40
2018-05-24T13:52:08.101Z,1.50
2018-05-24T13:54:37.322Z,1.70
2018-05-24T13:57:07.748Z,1.63
2018-05-24T13:59:39.892Z,2.10
2018-05-24T14:02:09.277Z,1.73
2018-05-24T14:04:38.747Z,1.43
2018-05-24T14:07:08.214Z,1.87
2018-05-24T14:09:39.588Z,1.90
2018-05-24T14:12:09.165Z,2.10
2018-05-24T14:14:38.519Z,1.70
2018-05-24T14:17:08.861Z,1.80
2018-05-24T14:19:39.498Z,1.70
2018-05-24T14:22:09.494Z,1.70
2018-05-24T14:24:39.305Z,2.00
2018-05-24T14:27:09.164Z,1.87
2018-05-24T14:29:40.235Z,2.07
2018-05-24T14:32:13.697Z,1.70
2018-05-24T14:34:44.207Z,2.13
2018-05-24T14:37:15.847Z,2.00
2018-05-24T14:39:45.272Z,2.20
2018-05-24T14:42:15.021Z,2.07
2018-05-24T14:44:44.171Z,2.17
2018-05-24T14:47:14.098Z,2.23
2018-05-24T14:49:43.847Z,2.27
2018-05-24T14:52:13.200Z,2.33
2018-05-24T14:54:42.805Z,2.07
2018-05-24T14:57:15.366Z,2.10
2018-05-24T14:59:44.986Z,2.00
2018-05-24T15:02:13.954Z,2.27
2018-05-24T15:04:43.935Z,2.07
2018-05-24T15:07:15.550Z,2.20
2018-05-24T15:09:46.073Z,2.03
2018-05-24T15:12:16.947Z,2.33
2018-05-24T15:14:46.697Z,2.37
2018-05-24T15:17:16.603Z,2.30
2018-05-24T15:19:46.028Z,2.13
2018-05-24T15:22:15.560Z,2.60
2018-05-24T15:24:46.675Z,2.43
2018-05-24T15:27:16.201Z,2.70
2018-05-24T15:29:45.692Z,2.40
2018-05-24T15:32:14.842Z,2.60
2018-05-24T15:34:45.475Z,2.40
2018-05-24T15:37:16.796Z,2.73
2018-05-24T15:39:46.591Z,2.37
2018-05-24T15:42:18.768Z,2.70
2018-05-24T15:44:50.251Z,2.43
2018-05-24T15:47:20.520Z,2.70
2018-05-24T15:49:50.544Z,2.47
2018-05-24T15:52:20.151Z,2.70
2018-05-24T15:54:49.586Z,2.60
2018-05-24T15:57:20.403Z,2.50
2018-05-24T15:59:50.490Z,2.33
2018-05-24T16:02:20.173Z,2.40
2018-05-24T16:04:49.853Z,2.60
2018-05-24T16:07:20.513Z,2.50
2018-05-24T16:09:50.273Z,2.83
2018-05-24T16:12:20.269Z,2.50
2018-05-24T16:14:50.697Z,2.60
2018-05-24T16:17:20.277Z,2.33
2018-05-24T16:19:49.734Z,2.33
2018-05-24T16:22:19.395Z,2.63
2018-05-24T16:24:48.849Z,2.50
2018-05-24T16:27:19.365Z,2.40
2018-05-24T16:29:49.260Z,2.80
2018-05-24T16:32:18.988Z,2.60
2018-05-24T16:34:49.134Z,2.50
2018-05-24T16:37:18.830Z,2.47
2018-05-24T16:39:49.906Z,2.70
2018-05-24T16:42:19.533Z,2.53
2018-05-24T16:44:48.953Z,2.50
2018-05-24T16:47:18.629Z,2.30
2018-05-24T16:49:48.298Z,2.90
2018-05-24T16:52:17.862Z,2.50
2018-05-24T16:54:47.408Z,2.77
2018-05-24T16:57:19.569Z,2.40
2018-05-24T16:59:49.089Z,2.50
2018-05-24T17:02:18.806Z,2.70
2018-05-24T17:04:49.639Z,2.60
2018-05-24T17:07:19.741Z,2.63
2018-05-24T17:09:49.551Z,2.47
2018-05-24T17:12:18.959Z,2.43
2018-05-24T17:14:49.153Z,2.10
2018-05-24T17:17:18.724Z,2.57
2018-05-24T17:19:49.045Z,2.50
2018-05-24T17:22:18.663Z,2.73
2018-05-24T17:24:48.324Z,2.90
2018-05-24T17:27:18.959Z,2.93
2018-05-24T17:29:48.403Z,2.67
2018-05-24T17:32:18.900Z,2.70
2018-05-24T17:34:48.862Z,2.60
2018-05-24T17:37:18.527Z,2.43
2018-05-24T17:39:48.207Z,2.60
2018-05-24T17:42:18.637Z,2.77
2018-05-24T17:44:49.464Z,2.83
2018-05-24T17:47:19.727Z,3.50
2018-05-24T17:49:53.510Z,2.67
2018-05-24T17:52:22.975Z,2.80
2018-05-24T17:54:52.324Z,2.47
2018-05-24T17:57:22.115Z,2.47
2018-05-24T17:59:56.171Z,3.03
2018-05-24T18:02:26.305Z,2.23
2018-05-24T18:04:56.751Z,2.53
2018-05-24T18:07:26.476Z,2.50
2018-05-24T18:09:56.262Z,2.47
2018-05-24T18:12:26.015Z,2.10
2018-05-24T18:14:56.794Z,2.43
2018-05-24T18:17:26.492Z,2.40
2018-05-24T18:19:57.023Z,2.80
2018-05-24T18:22:27.225Z,2.60
2018-05-24T18:24:57.049Z,2.40
2018-05-24T18:27:29.989Z,2.70
2018-05-24T18:30:00.728Z,2.50
2018-05-24T18:32:33.553Z,2.63
2018-05-24T18:35:04.833Z,2.80
2018-05-24T18:37:35.647Z,2.60
2018-05-24T18:40:07.154Z,2.40
2018-05-24T18:42:38.668Z,2.35
2018-05-24T18:45:08.355Z,2.12
2018-05-24T18:47:39.504Z,2.17
2018-05-24T18:50:10.561Z,2.05
2018-05-24T18:52:41.252Z,2.25
2018-05-24T18:55:12.032Z,2.30
2018-05-24T18:57:42.393Z,2.20
2018-05-24T19:00:12.318Z,2.03
2018-05-24T19:02:41.969Z,3.17
2018-05-24T19:05:11.366Z,2.10
2018-05-24T19:07:41.442Z,2.20
2018-05-24T19:10:27.527Z,2.30
2018-05-24T19:12:57.503Z,2.30
2018-05-24T19:15:27.030Z,2.30
2018-05-24T19:17:57.059Z,1.95
2018-05-24T19:20:27.453Z,2.17
2018-05-24T19:22:57.850Z,2.50
2018-05-24T19:25:27.566Z,2.40
2018-05-24T19:27:57.157Z,2.70
2018-05-24T19:30:27.585Z,2.60
2018-05-24T19:32:57.983Z,2.40
2018-05-24T19:35:27.517Z,2.25
2018-05-24T19:37:57.057Z,2.85
2018-05-24T19:40:26.763Z,2.47
2018-05-24T19:42:57.134Z,2.75
2018-05-24T19:45:27.189Z,2.40
2018-05-24T19:47:57.285Z,2.62
2018-05-24T19:50:26.717Z,2.70
2018-05-24T19:52:55.903Z,2.65
2018-05-24T19:55:25.490Z,2.42
2018-05-24T19:57:54.784Z,2.55
2018-05-24T20:00:25.083Z,3.03
2018-05-24T20:02:56.686Z,2.65
2018-05-24T20:05:25.965Z,2.83
2018-05-24T20:07:55.326Z,2.50
2018-05-24T20:10:25.620Z,2.70
2018-05-24T20:12:55.887Z,2.67
2018-05-24T20:15:26.501Z,3.00
2018-05-24T20:17:57.350Z,2.67
2018-05-24T20:20:27.097Z,2.80
2018-05-24T20:22:56.634Z,2.80
2018-05-24T20:25:25.925Z,2.62
2018-05-24T20:27:56.004Z,2.97
2018-05-24T20:30:25.508Z,2.78
2018-05-24T20:32:54.949Z,2.62
2018-05-24T20:35:25.464Z,2.50
2018-05-24T20:37:55.112Z,2.75
2018-05-24T20:40:25.490Z,2.67
2018-05-24T20:42:54.777Z,2.58
2018-05-24T20:45:24.326Z,2.78
2018-05-24T20:47:54.047Z,2.85
2018-05-24T20:50:24.596Z,3.22
2018-05-24T20:52:54.195Z,2.90
2018-05-24T20:55:23.279Z,2.60
2018-05-24T20:57:54.013Z,2.85
2018-05-24T21:00:24.322Z,2.55
2018-05-24T21:02:53.963Z,2.42
2018-05-24T21:05:23.387Z,3.30
2018-05-24T21:07:52.899Z,2.95
2018-05-24T21:10:22.323Z,2.80
2018-05-24T21:12:51.895Z,3.08
2018-05-24T21:15:21.335Z,2.70
2018-05-24T21:17:51.025Z,3.12
2018-05-24T21:20:20.477Z,2.95
2018-05-24T21:22:51.197Z,2.90
2018-05-24T21:25:21.484Z,2.53
2018-05-24T21:27:51.085Z,2.70
2018-05-24T21:30:21.027Z,3.40
2018-05-24T21:32:50.661Z,2.95
2018-05-24T21:35:20.076Z,2.80
2018-05-24T21:37:50.824Z,3.15
2018-05-24T21:40:20.612Z,3.30
2018-05-24T21:42:51.093Z,3.10
2018-05-24T21:45:20.638Z,2.80
2018-05-24T21:47:50.396Z,3.12
2018-05-24T21:50:19.908Z,2.65
2018-05-24T21:52:49.467Z,2.60
2018-05-24T21:55:19.977Z,2.78
2018-05-24T21:57:49.604Z,2.83
2018-05-24T22:00:20.066Z,2.60
2018-05-24T22:02:50.452Z,2.62
2018-05-24T22:05:19.867Z,2.60
2018-05-24T22:07:49.158Z,2.80
2018-05-24T22:10:20.071Z,2.67
2018-05-24T22:12:49.759Z,2.92
2018-05-24T22:15:19.100Z,2.83
2018-05-24T22:17:48.550Z,2.87
2018-05-24T22:20:18.213Z,2.90
2018-05-24T22:22:47.836Z,2.80
2018-05-24T22:25:19.248Z,3.03
2018-05-24T22:27:48.855Z,2.90
2018-05-24T22:30:18.464Z,2.30
2018-05-24T22:32:48.050Z,2.70
2018-05-24T22:35:17.615Z,2.50
2018-05-24T22:37:47.142Z,2.92
2018-05-24T22:40:17.428Z,2.72
2018-05-24T22:42:48.083Z,2.70
2018-05-24T22:45:17.649Z,2.22
2018-05-24T22:47:46.907Z,2.03
2018-05-24T22:50:16.437Z,2.28
2018-05-24T22:52:45.763Z,2.10
2018-05-24T22:55:16.724Z,2.30
2018-05-24T22:57:46.238Z,2.17
2018-05-24T23:00:16.084Z,2.25
2018-05-24T23:02:45.807Z,2.20
2018-05-24T23:05:15.619Z,2.20
2018-05-24T23:07:45.002Z,1.90
2018-05-24T23:10:15.584Z,2.20
2018-05-24T23:12:45.881Z,2.28
2018-05-24T23:15:15.209Z,1.90
2018-05-24T23:17:45.004Z,2.00
2018-05-24T23:20:14.791Z,2.12
2018-05-24T23:22:44.626Z,2.00
2018-05-24T23:25:14.257Z,1.77
2018-05-24T23:27:43.861Z,1.85
2018-05-24T23:30:14.222Z,2.00
2018-05-24T23:32:43.867Z,1.80
2018-05-24T23:35:13.874Z,1.90
2018-05-24T23:37:43.332Z,2.00
2018-05-24T23:40:12.954Z,1.85
2018-05-24T23:42:42.890Z,2.00
2018-05-24T23:45:12.299Z,2.00
2018-05-24T23:47:42.240Z,3.92
2018-05-24T23:50:12.623Z,4.28
2018-05-24T23:52:42.226Z,4.95
2018-05-24T23:55:11.747Z,4.95
2018-05-24T23:57:41.343Z,2.00
